Terminal Aerodrome Forecast
Issued by NWS

Home | Current Version | Previous Version | Text Only | Print | Product List | Glossary On
Versions: 1 2 3 4 5 6 7 8 9 10 11 12 13 14 15
000
FTUS42 TJSJ 190012 AAA
TAFJBQ
TAF AMD
TJBQ 190012Z 1900/1924 VRB05KT P6SM FEW014 SCT030
      TEMPO 1900/1902 SCT014 BKN026 BKN030
     FM191400 05012KT P6SM SCT025
     FM191800 08008KT P6SM VCSH SCT020 SCT040 BKN050 PROB30
      1920/1922 SHRA SCT014 BKN020=

USA.gov is the U.S. government's official web portal to all federal, state and local government web resources and services.